createdAt,value
2019-05-07T00:01:13.423Z,9.40
2019-05-07T00:03:42.357Z,9.40
2019-05-07T00:06:12.413Z,9.50
2019-05-07T00:08:44.661Z,9.50
2019-05-07T00:11:12.626Z,9.50
2019-05-07T00:13:44.106Z,9.50
2019-05-07T00:16:12.788Z,9.60
2019-05-07T00:18:42.938Z,9.50
2019-05-07T00:21:12.633Z,9.50
2019-05-07T00:23:43.262Z,9.40
2019-05-07T00:26:13.250Z,9.10
2019-05-07T00:28:43.205Z,9.00
2019-05-07T00:31:12.454Z,9.10
2019-05-07T00:33:43.334Z,9.10
2019-05-07T00:36:24.616Z,9.00
2019-05-07T00:38:59.092Z,8.80
2019-05-07T00:41:37.286Z,8.90
2019-05-07T00:44:06.812Z,8.70
2019-05-07T00:46:36.124Z,8.70
2019-05-07T00:49:04.896Z,8.70
2019-05-07T00:51:35.058Z,8.70
2019-05-07T00:54:05.164Z,8.60
2019-05-07T00:56:34.007Z,8.50
2019-05-07T00:59:02.911Z,8.50
2019-05-07T01:01:32.824Z,8.50
2019-05-07T01:04:02.637Z,8.50
2019-05-07T01:06:33.134Z,8.60
2019-05-07T01:09:03.250Z,8.70
2019-05-07T01:11:33.491Z,8.60
2019-05-07T01:14:02.965Z,8.70
2019-05-07T01:16:33.073Z,8.80
2019-05-07T01:19:02.211Z,8.50
2019-05-07T01:21:32.503Z,8.60
2019-05-07T01:24:03.234Z,8.60
2019-05-07T01:26:33.011Z,8.50
2019-05-07T01:29:03.237Z,8.50
2019-05-07T01:31:42.998Z,8.50
2019-05-07T01:34:32.675Z,8.60
2019-05-07T01:37:02.693Z,8.60
2019-05-07T01:39:32.640Z,8.50
2019-05-07T01:42:02.297Z,8.50
2019-05-07T01:44:32.553Z,8.60
2019-05-07T01:47:02.523Z,8.70
2019-05-07T01:49:33.074Z,8.70
2019-05-07T01:52:02.636Z,8.50
2019-05-07T01:54:33.337Z,8.50
2019-05-07T01:57:02.924Z,8.40
2019-05-07T01:59:32.234Z,8.30
2019-05-07T02:02:06.349Z,8.40
2019-05-07T02:04:57.199Z,8.40
2019-05-07T02:07:33.552Z,8.40
2019-05-07T02:10:07.904Z,8.40
2019-05-07T02:12:37.637Z,8.30
2019-05-07T02:15:08.632Z,8.30
2019-05-07T02:17:37.398Z,8.40
2019-05-07T02:20:06.648Z,8.40
2019-05-07T02:22:35.492Z,8.40
2019-05-07T02:25:04.591Z,8.40
2019-05-07T02:27:33.368Z,8.40
2019-05-07T02:30:04.275Z,8.40
2019-05-07T02:32:33.361Z,8.40
2019-05-07T02:35:04.125Z,8.40
2019-05-07T02:37:53.526Z,8.30
2019-05-07T02:40:36.429Z,8.30
2019-05-07T02:43:05.192Z,8.30
2019-05-07T02:46:19.820Z,8.40
2019-05-07T02:48:38.127Z,8.40
2019-05-07T02:51:13.484Z,8.30
2019-05-07T02:53:55.993Z,8.20
2019-05-07T02:56:25.161Z,8.10
2019-05-07T02:58:54.245Z,8.10
2019-05-07T03:01:23.372Z,8.00
2019-05-07T03:03:52.834Z,7.90
2019-05-07T03:06:23.305Z,7.90
2019-05-07T03:08:53.461Z,7.80
2019-05-07T03:11:22.903Z,7.80
2019-05-07T03:13:53.698Z,7.80
2019-05-07T03:16:38.092Z,7.80
2019-05-07T03:18:54.073Z,7.80
2019-05-07T03:21:23.544Z,7.70
2019-05-07T03:24:09.870Z,7.70
2019-05-07T03:26:43.643Z,7.80
2019-05-07T03:29:17.929Z,7.70
2019-05-07T03:31:56.294Z,7.60
2019-05-07T03:34:36.204Z,7.40
2019-05-07T03:37:06.209Z,7.50
2019-05-07T03:39:33.848Z,7.60
2019-05-07T03:42:03.554Z,7.70
2019-05-07T03:44:45.038Z,7.60
2019-05-07T03:47:19.720Z,7.50
2019-05-07T03:49:48.866Z,7.40
2019-05-07T03:52:17.682Z,7.30
2019-05-07T03:54:46.741Z,7.40
2019-05-07T03:57:16.140Z,7.30
2019-05-07T03:59:45.081Z,7.40
2019-05-07T04:02:14.434Z,7.50
2019-05-07T04:04:43.677Z,7.60
2019-05-07T04:07:13.775Z,7.50
2019-05-07T04:09:43.712Z,7.50
2019-05-07T04:12:13.609Z,7.60
2019-05-07T04:14:43.159Z,7.70
2019-05-07T04:17:17.231Z,7.60
2019-05-07T04:19:44.074Z,7.60
2019-05-07T04:22:13.645Z,7.50
2019-05-07T04:24:54.336Z,7.60
2019-05-07T04:27:28.180Z,7.70
2019-05-07T04:29:57.227Z,7.60
2019-05-07T04:32:33.439Z,7.60
2019-05-07T04:35:19.480Z,7.60
2019-05-07T04:37:48.879Z,7.60
2019-05-07T04:40:17.661Z,7.60
2019-05-07T04:42:46.507Z,7.60
2019-05-07T04:45:15.996Z,7.60
2019-05-07T04:47:47.805Z,7.60
2019-05-07T04:50:37.282Z,7.60
2019-05-07T04:52:47.790Z,7.50
2019-05-07T04:55:16.837Z,7.50
2019-05-07T04:57:45.618Z,7.60
2019-05-07T05:00:15.712Z,7.70
2019-05-07T05:02:59.814Z,7.70
2019-05-07T05:05:28.913Z,7.70
2019-05-07T05:07:57.739Z,7.70
2019-05-07T05:10:26.520Z,7.70
2019-05-07T05:12:55.295Z,7.70
2019-05-07T05:15:24.076Z,7.90
2019-05-07T05:17:54.057Z,8.00
2019-05-07T05:20:30.863Z,8.10
2019-05-07T05:23:19.052Z,8.10
2019-05-07T05:25:48.157Z,8.10
2019-05-07T05:28:16.992Z,8.10
2019-05-07T05:30:53.456Z,8.10
2019-05-07T05:33:23.419Z,8.10
2019-05-07T05:35:52.678Z,8.00
2019-05-07T05:38:22.334Z,7.90
2019-05-07T05:40:52.115Z,8.10
2019-05-07T05:43:31.979Z,8.10
2019-05-07T05:46:02.700Z,8.20
2019-05-07T05:48:33.338Z,8.10
2019-05-07T05:51:17.121Z,8.20
2019-05-07T05:53:52.422Z,8.20
2019-05-07T05:56:36.118Z,8.20
2019-05-07T05:59:23.773Z,8.20
2019-05-07T06:01:54.431Z,8.30
2019-05-07T06:04:29.940Z,8.30
2019-05-07T06:07:12.256Z,8.30
2019-05-07T06:09:47.521Z,8.40
2019-05-07T06:12:44.294Z,8.50
2019-05-07T06:15:22.071Z,8.50
2019-05-07T06:18:21.130Z,8.40
2019-05-07T06:20:56.309Z,8.60
2019-05-07T06:23:32.759Z,8.60
2019-05-07T06:26:04.809Z,8.50
2019-05-07T06:28:32.994Z,8.50
2019-05-07T06:31:02.231Z,8.50
2019-05-07T06:33:32.419Z,8.60
2019-05-07T06:36:02.846Z,8.70
2019-05-07T06:38:36.131Z,8.80
2019-05-07T06:41:18.270Z,8.80
2019-05-07T06:43:53.841Z,8.90
2019-05-07T06:46:23.198Z,8.90
2019-05-07T06:48:52.698Z,9.00
2019-05-07T06:51:22.074Z,9.10
2019-05-07T06:53:51.835Z,9.20
2019-05-07T06:56:23.001Z,9.00
2019-05-07T06:59:02.213Z,9.10
2019-05-07T07:01:53.115Z,9.20
2019-05-07T07:04:28.396Z,9.00
2019-05-07T07:07:02.314Z,9.10
2019-05-07T07:10:08.664Z,9.20
2019-05-07T07:12:37.510Z,9.30
2019-05-07T07:15:06.930Z,9.60
2019-05-07T07:17:36.117Z,9.50
2019-05-07T07:20:06.110Z,9.50
2019-05-07T07:22:34.953Z,9.50
2019-05-07T07:25:06.532Z,9.60
2019-05-07T07:27:35.005Z,9.60
2019-05-07T07:30:42.298Z,9.80
2019-05-07T07:33:12.181Z,9.80
2019-05-07T07:35:42.833Z,9.90
2019-05-07T07:38:29.534Z,10.00
2019-05-07T07:41:05.297Z,10.00
2019-05-07T07:43:33.249Z,9.80
2019-05-07T07:46:02.210Z,9.80
2019-05-07T07:48:32.099Z,9.80
2019-05-07T07:51:03.022Z,9.80
2019-05-07T07:53:35.160Z,9.90
2019-05-07T07:56:22.892Z,9.90
2019-05-07T07:59:06.515Z,9.80
2019-05-07T08:01:42.126Z,10.00
2019-05-07T08:04:12.308Z,10.10
2019-05-07T08:06:42.162Z,10.00
2019-05-07T08:09:13.000Z,9.80
2019-05-07T08:11:42.566Z,9.80
2019-05-07T08:14:12.686Z,9.80
2019-05-07T08:16:43.004Z,9.90
2019-05-07T08:19:21.649Z,10.00
2019-05-07T08:21:42.953Z,10.10
2019-05-07T08:24:12.357Z,10.10
2019-05-07T08:26:42.896Z,10.10
2019-05-07T08:29:12.113Z,10.10
2019-05-07T08:31:58.924Z,10.00
2019-05-07T08:34:32.596Z,10.20
2019-05-07T08:37:01.954Z,10.20
2019-05-07T08:39:32.568Z,10.40
2019-05-07T08:42:02.172Z,10.60
2019-05-07T08:44:42.964Z,10.80
2019-05-07T08:47:24.533Z,11.00
2019-05-07T08:49:53.301Z,11.20
2019-05-07T08:52:25.744Z,11.30
2019-05-07T08:54:53.570Z,11.10
2019-05-07T08:57:23.193Z,11.00
2019-05-07T09:00:00.242Z,10.90
2019-05-07T09:02:22.812Z,11.00
2019-05-07T09:04:52.328Z,11.20
2019-05-07T09:07:21.958Z,11.20
2019-05-07T09:09:52.269Z,11.10
2019-05-07T09:12:23.010Z,11.20
2019-05-07T09:14:52.979Z,11.30
2019-05-07T09:17:23.099Z,11.30
2019-05-07T09:19:54.853Z,11.40
2019-05-07T09:22:23.148Z,11.50
2019-05-07T09:24:52.737Z,11.80
2019-05-07T09:27:52.236Z,11.80
2019-05-07T09:30:28.609Z,11.80
2019-05-07T09:33:17.074Z,11.90
2019-05-07T09:35:52.837Z,12.10
2019-05-07T09:38:22.325Z,12.20
2019-05-07T09:40:52.447Z,12.10
2019-05-07T09:43:22.118Z,12.10
2019-05-07T09:45:52.368Z,11.90
2019-05-07T09:48:22.174Z,11.90
2019-05-07T09:50:52.921Z,11.70
2019-05-07T09:53:22.836Z,11.80
2019-05-07T09:55:51.853Z,11.80
2019-05-07T09:58:34.943Z,11.80
2019-05-07T10:00:51.895Z,11.90
2019-05-07T10:03:22.659Z,12.10
2019-05-07T10:05:51.916Z,12.20
2019-05-07T10:08:20.987Z,12.50
2019-05-07T10:10:51.244Z,12.70
2019-05-07T10:13:37.764Z,12.90
2019-05-07T10:16:07.773Z,13.10
2019-05-07T10:18:36.933Z,13.20
2019-05-07T10:21:05.856Z,13.40
2019-05-07T10:23:34.771Z,13.50
2019-05-07T10:26:04.278Z,13.60
2019-05-07T10:28:33.804Z,13.70
2019-05-07T10:31:02.651Z,13.80
2019-05-07T10:33:32.080Z,13.90
2019-05-07T10:36:02.130Z,13.90
2019-05-07T10:38:31.104Z,14.00
2019-05-07T10:41:00.226Z,14.00
2019-05-07T10:43:32.583Z,13.90
2019-05-07T10:46:32.844Z,14.00
2019-05-07T10:49:12.307Z,14.10
2019-05-07T10:51:42.536Z,14.10
2019-05-07T10:54:12.624Z,14.10
2019-05-07T10:56:41.931Z,14.20
2019-05-07T10:59:12.189Z,14.30
2019-05-07T11:02:02.332Z,14.40
2019-05-07T11:04:40.138Z,14.50
2019-05-07T11:07:01.611Z,14.50
2019-05-07T11:09:32.679Z,14.50
2019-05-07T11:12:02.606Z,14.60
2019-05-07T11:14:32.125Z,14.70
2019-05-07T11:17:14.054Z,14.80
2019-05-07T11:19:42.821Z,15.00
2019-05-07T11:22:11.702Z,15.10
2019-05-07T11:24:42.604Z,15.20
2019-05-07T11:27:11.898Z,15.20
2019-05-07T11:29:42.949Z,15.20
2019-05-07T11:32:12.365Z,15.00
2019-05-07T11:34:44.037Z,14.90
2019-05-07T11:37:12.805Z,15.00
2019-05-07T11:39:42.769Z,14.90
2019-05-07T11:42:33.848Z,14.90
2019-05-07T11:45:02.995Z,14.80
2019-05-07T11:47:33.218Z,14.80
2019-05-07T11:50:22.464Z,14.90
2019-05-07T11:52:55.811Z,14.70
2019-05-07T11:55:24.672Z,14.70
2019-05-07T11:57:53.757Z,14.80
2019-05-07T12:00:29.153Z,14.90
2019-05-07T12:02:57.943Z,14.80
2019-05-07T12:05:26.826Z,14.80
2019-05-07T12:07:55.603Z,14.70
2019-05-07T12:10:24.372Z,14.80
2019-05-07T12:12:53.556Z,14.70
2019-05-07T12:15:22.748Z,14.70
2019-05-07T12:17:52.225Z,14.70
2019-05-07T12:20:21.919Z,14.80
2019-05-07T12:22:52.148Z,14.90
2019-05-07T12:25:22.167Z,14.70
2019-05-07T12:27:53.458Z,14.70
2019-05-07T12:30:42.691Z,14.70
2019-05-07T12:33:22.154Z,14.60
2019-05-07T12:35:52.453Z,14.60
2019-05-07T12:38:21.981Z,14.40
2019-05-07T12:40:52.402Z,14.40
2019-05-07T12:43:21.348Z,14.30
2019-05-07T12:45:52.498Z,14.30
2019-05-07T12:48:21.839Z,14.30
2019-05-07T12:50:52.263Z,14.30
2019-05-07T12:53:42.301Z,14.30
2019-05-07T12:56:11.357Z,14.10
2019-05-07T12:58:40.762Z,13.90
2019-05-07T13:01:16.925Z,14.00
2019-05-07T13:04:04.789Z,14.00
2019-05-07T13:06:37.332Z,14.00
2019-05-07T13:09:07.144Z,14.10
2019-05-07T13:11:36.032Z,14.40
2019-05-07T13:14:05.240Z,14.50
2019-05-07T13:16:34.087Z,14.60
2019-05-07T13:19:02.961Z,14.80
2019-05-07T13:21:35.939Z,14.90
2019-05-07T13:24:02.874Z,15.00
2019-05-07T13:26:32.308Z,15.00
2019-05-07T13:29:02.593Z,15.10
2019-05-07T13:31:34.325Z,15.20
2019-05-07T13:34:03.314Z,15.30
2019-05-07T13:36:32.858Z,15.30
2019-05-07T13:39:12.408Z,15.30
2019-05-07T13:42:06.332Z,15.30
2019-05-07T13:44:53.439Z,15.20
2019-05-07T13:47:28.068Z,15.20
2019-05-07T13:49:56.980Z,15.20
2019-05-07T13:52:25.837Z,15.30
2019-05-07T13:54:55.281Z,15.40
2019-05-07T13:57:24.139Z,15.50
2019-05-07T13:59:54.093Z,15.60
2019-05-07T14:02:25.220Z,15.70
2019-05-07T14:04:54.157Z,15.80
2019-05-07T14:07:23.826Z,15.80
2019-05-07T14:09:53.155Z,15.70
2019-05-07T14:12:22.887Z,15.60
2019-05-07T14:14:52.994Z,15.60
2019-05-07T14:17:22.364Z,15.70
2019-05-07T14:19:53.084Z,15.80
2019-05-07T14:22:22.509Z,15.90
2019-05-07T14:24:53.115Z,15.70
2019-05-07T14:27:22.384Z,15.70
2019-05-07T14:29:52.042Z,15.70
2019-05-07T14:32:30.340Z,15.70
2019-05-07T14:35:18.893Z,15.80
2019-05-07T14:37:52.361Z,15.70
2019-05-07T14:40:22.332Z,15.80
2019-05-07T14:42:58.871Z,15.70
2019-05-07T14:45:27.784Z,15.80
2019-05-07T14:47:56.717Z,15.10
2019-05-07T14:50:25.636Z,14.80
2019-05-07T14:52:55.273Z,14.70
2019-05-07T14:55:24.656Z,14.80
2019-05-07T14:57:53.861Z,14.90
2019-05-07T15:00:22.889Z,15.00
2019-05-07T15:02:52.582Z,15.10
2019-05-07T15:05:22.366Z,15.40
2019-05-07T15:07:51.789Z,15.40
2019-05-07T15:10:22.198Z,15.40
2019-05-07T15:12:52.187Z,15.40
2019-05-07T15:15:21.992Z,15.40
2019-05-07T15:18:02.133Z,15.50
2019-05-07T15:20:32.996Z,15.40
2019-05-07T15:23:11.982Z,15.40
2019-05-07T15:25:41.656Z,15.40
2019-05-07T15:28:12.241Z,15.40
2019-05-07T15:30:49.165Z,15.20
2019-05-07T15:33:18.391Z,15.20
2019-05-07T15:35:47.237Z,15.30
2019-05-07T15:38:16.452Z,15.10
2019-05-07T15:40:45.647Z,15.10
2019-05-07T15:43:14.584Z,15.20
2019-05-07T15:45:43.732Z,15.20
2019-05-07T15:48:12.843Z,15.20
2019-05-07T15:50:42.874Z,15.30
2019-05-07T15:53:17.692Z,15.10
2019-05-07T15:55:46.852Z,15.00
2019-05-07T15:58:15.960Z,15.00
2019-05-07T16:00:45.089Z,15.00
2019-05-07T16:03:19.180Z,15.10
2019-05-07T16:05:48.282Z,15.20
2019-05-07T16:08:18.518Z,15.20
2019-05-07T16:10:47.997Z,15.20
2019-05-07T16:13:22.567Z,15.10
2019-05-07T16:15:52.863Z,15.20
2019-05-07T16:18:26.028Z,15.10
2019-05-07T16:20:54.900Z,15.10
2019-05-07T16:23:24.057Z,14.80
2019-05-07T16:25:52.921Z,14.80
2019-05-07T16:28:22.060Z,14.60
2019-05-07T16:30:52.121Z,14.70
2019-05-07T16:33:21.198Z,14.80
2019-05-07T16:35:50.275Z,14.90
2019-05-07T16:38:19.336Z,15.00
2019-05-07T16:40:48.134Z,14.80
2019-05-07T16:43:16.902Z,14.90
2019-05-07T16:45:46.097Z,15.00
2019-05-07T16:48:14.863Z,14.90
2019-05-07T16:50:43.671Z,14.90
2019-05-07T16:53:26.299Z,14.90
2019-05-07T16:55:43.161Z,14.90
2019-05-07T16:58:24.800Z,14.90
2019-05-07T17:01:00.037Z,14.90
2019-05-07T17:03:32.994Z,14.90
2019-05-07T17:06:01.881Z,14.80
2019-05-07T17:08:39.271Z,14.80
2019-05-07T17:11:08.683Z,14.90
2019-05-07T17:13:38.913Z,14.90
2019-05-07T17:16:07.801Z,14.90
2019-05-07T17:18:37.036Z,14.90
2019-05-07T17:21:08.223Z,14.80
2019-05-07T17:23:44.201Z,14.80
2019-05-07T17:26:07.553Z,14.80
2019-05-07T17:28:36.599Z,14.80
2019-05-07T17:31:05.455Z,14.70
2019-05-07T17:33:36.040Z,14.70
2019-05-07T17:36:05.311Z,14.70
2019-05-07T17:38:34.153Z,14.80
2019-05-07T17:41:12.950Z,14.70
2019-05-07T17:43:33.504Z,14.80
2019-05-07T17:46:02.881Z,14.70
2019-05-07T17:48:33.368Z,14.70
2019-05-07T17:51:24.014Z,14.60
2019-05-07T17:53:59.635Z,14.50
2019-05-07T17:56:24.466Z,14.40
2019-05-07T17:58:53.298Z,14.20
2019-05-07T18:01:27.697Z,14.20
2019-05-07T18:03:56.414Z,14.20
2019-05-07T18:06:25.356Z,14.10
2019-05-07T18:08:54.244Z,14.10
2019-05-07T18:11:29.224Z,14.10
2019-05-07T18:13:58.255Z,14.10
2019-05-07T18:16:49.190Z,14.10
2019-05-07T18:19:18.420Z,14.10
2019-05-07T18:21:47.511Z,14.10
2019-05-07T18:24:16.908Z,14.10
2019-05-07T18:26:46.106Z,14.10
2019-05-07T18:29:14.843Z,14.00
2019-05-07T18:31:49.869Z,14.00
2019-05-07T18:34:18.936Z,14.00
2019-05-07T18:36:48.014Z,14.00
2019-05-07T18:39:16.831Z,14.00
2019-05-07T18:41:45.611Z,14.10
2019-05-07T18:44:16.168Z,14.10
2019-05-07T18:46:45.655Z,14.00
2019-05-07T18:49:15.033Z,13.90
2019-05-07T18:51:43.963Z,13.90
2019-05-07T18:54:26.898Z,13.80
2019-05-07T18:56:46.731Z,13.80
2019-05-07T18:59:16.627Z,13.70
2019-05-07T19:01:45.636Z,13.70
2019-05-07T19:04:14.734Z,13.80
2019-05-07T19:06:43.494Z,13.80
2019-05-07T19:09:12.292Z,13.70
2019-05-07T19:11:42.738Z,13.70
2019-05-07T19:14:13.445Z,13.80
2019-05-07T19:16:43.058Z,13.80
2019-05-07T19:19:12.952Z,13.70
2019-05-07T19:21:42.311Z,13.70
2019-05-07T19:24:11.707Z,13.60
2019-05-07T19:26:42.085Z,13.50
2019-05-07T19:29:12.520Z,13.50
2019-05-07T19:31:41.856Z,13.50
2019-05-07T19:34:12.298Z,13.40
2019-05-07T19:36:42.455Z,13.30
2019-05-07T19:39:12.633Z,13.00
2019-05-07T19:41:43.008Z,12.90
2019-05-07T19:44:12.690Z,12.70
2019-05-07T19:46:41.959Z,12.50
2019-05-07T19:49:10.751Z,12.40
2019-05-07T19:51:45.496Z,12.40
2019-05-07T19:55:01.631Z,12.30
2019-05-07T19:56:57.943Z,12.30
2019-05-07T19:59:32.459Z,12.30
2019-05-07T20:02:02.480Z,12.30
2019-05-07T20:04:35.692Z,12.20
2019-05-07T20:07:12.082Z,12.20
2019-05-07T20:09:54.474Z,12.10
2019-05-07T20:25:35.440Z,11.90
2019-05-07T20:28:04.379Z,11.80
2019-05-07T20:30:33.152Z,11.80
2019-05-07T20:33:03.108Z,11.80
2019-05-07T20:35:32.550Z,11.80
2019-05-07T20:38:02.951Z,11.80
2019-05-07T20:40:32.168Z,11.70
2019-05-07T20:43:02.019Z,11.70
2019-05-07T20:45:32.069Z,11.70
2019-05-07T20:48:02.549Z,11.80
2019-05-07T20:50:33.236Z,11.90
2019-05-07T20:53:02.252Z,12.00
2019-05-07T20:55:37.217Z,12.00
2019-05-07T20:58:05.990Z,12.00
2019-05-07T21:00:35.001Z,11.90
2019-05-07T21:03:23.720Z,11.70
2019-05-07T21:05:53.636Z,11.70
2019-05-07T21:08:22.959Z,11.60
2019-05-07T21:10:53.516Z,11.60
2019-05-07T21:13:31.065Z,11.50
2019-05-07T21:15:53.523Z,11.40
2019-05-07T21:18:23.213Z,11.30
2019-05-07T21:20:53.033Z,11.30
2019-05-07T21:23:23.106Z,11.20
2019-05-07T21:25:53.019Z,11.20
2019-05-07T21:28:22.116Z,11.10
2019-05-07T21:30:52.251Z,11.10
2019-05-07T21:33:22.894Z,11.20
2019-05-07T21:35:52.556Z,11.20
2019-05-07T21:38:22.516Z,11.20
2019-05-07T21:40:51.463Z,11.20
2019-05-07T21:43:22.241Z,11.20
2019-05-07T21:45:52.972Z,11.20
2019-05-07T21:48:22.268Z,11.30
2019-05-07T21:50:51.924Z,11.20
2019-05-07T21:53:26.587Z,11.20
2019-05-07T21:56:05.305Z,11.10
2019-05-07T21:58:40.447Z,11.10
2019-05-07T22:01:15.872Z,11.00
2019-05-07T22:03:47.348Z,10.90
2019-05-07T22:06:16.189Z,10.70
2019-05-07T22:08:45.449Z,10.70
2019-05-07T22:11:14.365Z,10.80
2019-05-07T22:13:43.686Z,10.70
2019-05-07T22:16:13.203Z,10.80
2019-05-07T22:18:42.803Z,10.70
2019-05-07T22:21:12.467Z,10.70
2019-05-07T22:23:42.824Z,10.70
2019-05-07T22:26:20.159Z,10.70
2019-05-07T22:28:42.448Z,10.60
2019-05-07T22:31:33.402Z,10.40
2019-05-07T22:34:24.628Z,10.40
2019-05-07T22:36:55.004Z,10.30
2019-05-07T22:39:24.248Z,10.30
2019-05-07T22:41:53.365Z,10.20
2019-05-07T22:44:25.467Z,10.20
2019-05-07T22:46:52.920Z,10.20
2019-05-07T22:49:22.912Z,10.20
2019-05-07T22:51:54.619Z,10.20
2019-05-07T22:54:22.675Z,10.20
2019-05-07T22:57:03.162Z,10.10
2019-05-07T22:59:32.800Z,10.00
2019-05-07T23:02:03.119Z,9.90
2019-05-07T23:04:32.650Z,9.80
2019-05-07T23:07:02.217Z,9.90
2019-05-07T23:09:31.491Z,9.90
2019-05-07T23:12:02.185Z,9.90
2019-05-07T23:14:32.994Z,9.90
2019-05-07T23:17:02.214Z,9.90
2019-05-07T23:19:32.717Z,9.90
2019-05-07T23:22:02.765Z,9.90
2019-05-07T23:24:31.957Z,9.80
2019-05-07T23:27:00.850Z,9.80
2019-05-07T23:29:29.604Z,9.90
2019-05-07T23:31:58.388Z,9.80
2019-05-07T23:34:27.226Z,9.80
2019-05-07T23:36:56.001Z,9.70
2019-05-07T23:39:26.805Z,9.60
2019-05-07T23:42:17.776Z,9.60
2019-05-07T23:44:46.591Z,9.60
2019-05-07T23:47:15.658Z,9.50
2019-05-07T23:49:44.752Z,9.40
2019-05-07T23:52:13.527Z,9.40
2019-05-07T23:54:42.593Z,9.40
2019-05-07T23:57:14.914Z,9.40
2019-05-07T23:59:42.393Z,9.20
